Terminal Aerodrome Forecast
Issued by NWS Tallahassee, FL

Current Version | Previous Version | Text Only | Print | Product List | Glossary On
Versions: 1 2 3 4 5 6 7 8 9 10 11 12 13 14 15 16 17 18 19 20 21 22 23 24 25 26 27 28 29
000
FTUS42 KTAE 031700
TAFTLH
TAF
KTLH 031740Z 0318/0418 17009KT P6SM FEW030 BKN045 BKN250
     FM040000 17004KT P6SM SCT050 SCT250
     FM040600 16003KT 5SM BR SCT002
     FM040800 16003KT 2SM BR BKN002
     FM041000 15003KT 1/4SM FG VV001
     FM041400 16004KT 2SM BR OVC004
     FM041600 19008KT P6SM SCT015 BKN035=

USA.gov is the U.S. government's official web portal to all federal, state and local government web resources and services.